createdAt,value
2018-07-03T00:00:34.018Z,28.30
2018-07-03T00:05:37.404Z,28.20
2018-07-03T00:10:40.776Z,28.20
2018-07-03T00:15:44.156Z,28.40
2018-07-03T00:20:47.612Z,29.00
2018-07-03T00:25:50.952Z,28.50
2018-07-03T00:30:54.326Z,28.80
2018-07-03T00:35:57.685Z,28.70
2018-07-03T00:41:01.037Z,28.90
2018-07-03T00:46:04.543Z,29.00
2018-07-03T00:51:07.928Z,29.00
2018-07-03T00:56:11.289Z,29.20
2018-07-03T01:01:14.659Z,29.20
2018-07-03T01:06:18.073Z,29.20
2018-07-03T01:11:21.434Z,29.40
2018-07-03T01:16:24.772Z,29.40
2018-07-03T01:21:28.194Z,29.50
2018-07-03T01:26:31.583Z,29.60
2018-07-03T01:31:34.933Z,29.70
2018-07-03T01:36:38.281Z,29.70
2018-07-03T01:41:41.637Z,29.80
2018-07-03T01:46:45.018Z,29.80
2018-07-03T01:51:48.354Z,29.80
2018-07-03T01:56:51.732Z,29.90
2018-07-03T02:01:55.103Z,29.90
2018-07-03T02:06:58.465Z,30.00
2018-07-03T02:12:01.817Z,30.10
2018-07-03T02:17:05.898Z,30.20
2018-07-03T02:22:09.284Z,30.60
2018-07-03T02:27:12.640Z,30.50
2018-07-03T02:32:16.004Z,30.70
2018-07-03T02:37:19.362Z,30.90
2018-07-03T02:42:22.702Z,30.90
2018-07-03T02:47:26.061Z,30.90
2018-07-03T02:52:29.453Z,30.90
2018-07-03T02:57:32.814Z,31.10
2018-07-03T03:02:36.159Z,31.20
2018-07-03T03:07:39.492Z,31.40
2018-07-03T03:12:42.840Z,31.20
2018-07-03T03:17:46.238Z,31.40
2018-07-03T03:22:49.594Z,31.40
2018-07-03T03:27:52.969Z,31.60
2018-07-03T03:32:56.297Z,31.60
2018-07-03T03:37:59.702Z,31.70
2018-07-03T03:43:03.052Z,31.80
2018-07-03T03:48:06.453Z,31.80
2018-07-03T03:53:09.781Z,31.90
2018-07-03T03:58:13.165Z,32.10
2018-07-03T04:03:16.508Z,32.10
2018-07-03T04:08:19.892Z,32.40
2018-07-03T04:13:23.240Z,32.60
2018-07-03T04:18:33.673Z,32.60
2018-07-03T04:23:37.887Z,32.90
2018-07-03T04:28:41.255Z,33.00
2018-07-03T04:33:44.582Z,33.10
2018-07-03T04:38:47.920Z,33.40
2018-07-03T04:43:51.684Z,33.50
2018-07-03T04:48:55.039Z,33.70
2018-07-03T04:53:58.412Z,34.00
2018-07-03T04:59:01.778Z,34.10
2018-07-03T05:04:05.157Z,34.30
2018-07-03T05:09:10.280Z,34.30
2018-07-03T05:14:13.663Z,34.50
2018-07-03T05:19:17.027Z,34.90
2018-07-03T05:24:20.409Z,35.10
2018-07-03T05:29:23.760Z,35.30
2018-07-03T05:34:27.139Z,35.70
2018-07-03T05:39:30.515Z,35.70
2018-07-03T05:44:33.845Z,35.70
2018-07-03T05:49:37.213Z,35.40
2018-07-03T05:54:40.600Z,35.30
2018-07-03T05:59:43.981Z,35.30
2018-07-03T06:04:47.333Z,35.10
2018-07-03T06:09:50.718Z,35.00
2018-07-03T06:14:54.231Z,34.80
2018-07-03T06:19:57.584Z,34.70
2018-07-03T06:25:00.937Z,34.70
2018-07-03T06:30:04.595Z,34.60
2018-07-03T06:35:07.987Z,34.50
2018-07-03T06:40:11.616Z,34.60
2018-07-03T06:45:14.779Z,34.30
2018-07-03T06:50:18.156Z,34.40
2018-07-03T06:55:21.500Z,33.90
2018-07-03T07:00:24.848Z,34.20
2018-07-03T07:05:28.216Z,34.10
2018-07-03T07:10:31.578Z,33.90
2018-07-03T07:15:34.993Z,34.00
2018-07-03T07:20:38.376Z,33.80
2018-07-03T07:25:41.735Z,33.80
2018-07-03T07:30:45.100Z,33.70
2018-07-03T07:35:48.510Z,33.30
2018-07-03T07:40:51.911Z,33.10
2018-07-03T07:45:55.336Z,32.80
2018-07-03T07:50:58.699Z,32.70
2018-07-03T07:56:02.100Z,32.30
2018-07-03T08:01:05.491Z,32.20
2018-07-03T08:06:08.836Z,31.80
2018-07-03T08:11:12.186Z,31.00
2018-07-03T08:16:15.565Z,30.60
2018-07-03T08:21:18.915Z,30.20
2018-07-03T08:26:22.253Z,30.00
2018-07-03T08:31:25.631Z,29.70
2018-07-03T08:36:29.041Z,29.70
2018-07-03T08:41:32.399Z,29.50
2018-07-03T08:46:35.787Z,29.20
2018-07-03T08:51:39.225Z,29.10
2018-07-03T08:56:42.597Z,29.30
2018-07-03T09:01:46.010Z,29.20
2018-07-03T09:06:49.375Z,28.80
2018-07-03T09:11:52.801Z,28.50
2018-07-03T09:16:56.174Z,28.30
2018-07-03T09:21:59.583Z,28.20
2018-07-03T09:27:02.980Z,28.50
2018-07-03T09:32:06.511Z,28.30
2018-07-03T09:37:09.913Z,28.10
2018-07-03T09:42:13.295Z,28.00
2018-07-03T09:47:16.680Z,28.00
2018-07-03T09:52:20.074Z,28.20
2018-07-03T09:57:23.453Z,27.90
2018-07-03T10:02:26.829Z,27.70
2018-07-03T10:07:30.246Z,27.50
2018-07-03T10:12:33.614Z,27.30
2018-07-03T10:17:37.012Z,27.50
2018-07-03T10:22:40.429Z,27.30
2018-07-03T10:27:43.837Z,27.20
2018-07-03T10:32:47.884Z,26.90
2018-07-03T10:37:51.268Z,26.70
2018-07-03T10:42:54.648Z,26.50
2018-07-03T10:47:58.048Z,26.70
2018-07-03T10:53:01.429Z,26.80
2018-07-03T10:58:04.877Z,26.10
2018-07-03T11:03:08.271Z,25.70
2018-07-03T11:08:11.675Z,25.40
2018-07-03T11:13:15.037Z,25.50
2018-07-03T11:18:18.454Z,25.30
2018-07-03T11:23:21.845Z,25.30
2018-07-03T11:28:25.872Z,25.30
2018-07-03T11:33:29.305Z,25.30
2018-07-03T11:38:32.677Z,25.30
2018-07-03T11:43:36.096Z,25.00
2018-07-03T11:48:39.491Z,24.90
2018-07-03T11:53:42.964Z,25.10
2018-07-03T11:58:46.334Z,24.70
2018-07-03T12:03:49.745Z,24.40
2018-07-03T12:08:53.188Z,24.40
2018-07-03T12:13:57.416Z,24.20
2018-07-03T12:19:01.032Z,23.90
2018-07-03T12:24:04.432Z,23.70
2018-07-03T12:29:07.903Z,23.70
2018-07-03T12:34:11.288Z,23.80
2018-07-03T12:39:14.664Z,23.60
2018-07-03T12:44:18.085Z,23.30
2018-07-03T12:49:21.540Z,23.30
2018-07-03T12:54:24.964Z,23.10
2018-07-03T12:59:28.373Z,23.10
2018-07-03T13:04:31.769Z,22.70
2018-07-03T13:09:35.206Z,22.90
2018-07-03T13:14:38.582Z,22.80
2018-07-03T13:19:42.028Z,22.80
2018-07-03T13:24:45.428Z,22.40
2018-07-03T13:29:48.845Z,22.10
2018-07-03T13:34:52.248Z,21.90
2018-07-03T13:39:55.761Z,22.30
2018-07-03T13:44:59.253Z,22.40
2018-07-03T13:50:02.800Z,22.40
2018-07-03T13:55:06.484Z,22.50
2018-07-03T14:00:10.423Z,22.20
2018-07-03T14:05:13.956Z,21.90
2018-07-03T14:10:17.405Z,21.80
2018-07-03T14:15:20.864Z,21.90
2018-07-03T14:20:30.088Z,21.50
2018-07-03T14:25:33.567Z,21.40
2018-07-03T14:30:37.162Z,21.50
2018-07-03T14:35:40.800Z,21.40
2018-07-03T14:40:44.329Z,20.80
2018-07-03T14:45:47.836Z,20.90
2018-07-03T14:50:51.394Z,20.80
2018-07-03T14:55:54.973Z,20.80
2018-07-03T15:00:58.757Z,20.90
2018-07-03T15:06:02.356Z,20.70
2018-07-03T15:11:05.990Z,20.50
2018-07-03T15:16:10.691Z,20.50
2018-07-03T15:21:14.516Z,20.30
2018-07-03T15:26:18.185Z,19.90
2018-07-03T15:31:21.877Z,19.90
2018-07-03T15:36:25.493Z,19.90
2018-07-03T15:41:29.113Z,19.80
2018-07-03T15:46:32.765Z,19.80
2018-07-03T15:51:36.444Z,19.70
2018-07-03T15:56:40.017Z,19.30
2018-07-03T16:01:44.700Z,19.30
2018-07-03T16:07:00.335Z,19.20
2018-07-03T16:12:03.986Z,19.20
2018-07-03T16:17:07.686Z,19.10
2018-07-03T16:22:11.273Z,18.70
2018-07-03T16:27:14.802Z,18.60
2018-07-03T16:32:18.305Z,19.00
2018-07-03T16:37:21.793Z,19.20
2018-07-03T16:42:25.330Z,19.20
2018-07-03T16:47:28.975Z,19.20
2018-07-03T16:52:32.526Z,19.00
2018-07-03T16:57:36.150Z,19.50
2018-07-03T17:02:39.670Z,19.40
2018-07-03T17:07:44.554Z,19.10
2018-07-03T17:12:48.028Z,19.20
2018-07-03T17:17:51.541Z,19.10
2018-07-03T17:22:55.033Z,19.00
2018-07-03T17:27:58.515Z,18.90
2018-07-03T17:33:01.957Z,19.20
2018-07-03T17:38:05.422Z,19.10
2018-07-03T17:43:26.058Z,19.20
2018-07-03T17:48:29.740Z,19.10
2018-07-03T17:53:36.673Z,19.30
2018-07-03T17:58:40.185Z,19.30
2018-07-03T18:03:45.064Z,19.50
2018-07-03T18:08:49.349Z,19.60
2018-07-03T18:13:52.998Z,19.40
2018-07-03T18:19:02.008Z,19.50
2018-07-03T18:24:05.873Z,19.70
2018-07-03T18:29:09.448Z,19.60
2018-07-03T18:34:13.037Z,19.90
2018-07-03T18:39:16.584Z,20.10
2018-07-03T18:44:20.054Z,20.30
2018-07-03T18:49:23.551Z,20.40
2018-07-03T18:54:27.207Z,20.50
2018-07-03T18:59:30.648Z,20.70
2018-07-03T19:04:34.158Z,21.00
2018-07-03T19:14:40.847Z,20.80
2018-07-03T19:19:44.363Z,21.10
2018-07-03T19:24:47.836Z,21.30
2018-07-03T19:29:51.301Z,21.40
2018-07-03T19:34:54.724Z,21.70
2018-07-03T19:39:58.156Z,21.40
2018-07-03T19:45:01.583Z,21.60
2018-07-03T19:50:05.272Z,21.60
2018-07-03T19:55:08.775Z,21.70
2018-07-03T20:00:12.284Z,21.80
2018-07-03T20:05:15.710Z,21.60
2018-07-03T20:10:19.128Z,21.80
2018-07-03T20:15:22.565Z,22.00
2018-07-03T20:20:26.352Z,22.10
2018-07-03T20:25:41.280Z,22.30
2018-07-03T20:30:44.706Z,22.30
2018-07-03T20:35:48.129Z,22.50
2018-07-03T20:45:55.672Z,22.20
2018-07-03T20:50:59.659Z,22.30
2018-07-03T20:56:04.097Z,22.50
2018-07-03T21:01:07.517Z,22.70
2018-07-03T21:06:12.096Z,22.40
2018-07-03T21:11:15.348Z,22.70
2018-07-03T21:21:45.048Z,23.20
2018-07-03T21:26:48.419Z,23.30
2018-07-03T21:31:51.923Z,23.70
2018-07-03T21:36:55.209Z,23.40
2018-07-03T21:41:58.604Z,23.70
2018-07-03T21:47:01.968Z,23.80
2018-07-03T21:52:05.316Z,23.90
2018-07-03T21:57:08.648Z,24.00
2018-07-03T22:02:12.044Z,24.20
2018-07-03T22:07:15.393Z,24.10
2018-07-03T22:12:18.780Z,24.20
2018-07-03T22:17:22.221Z,24.40
2018-07-03T22:22:25.585Z,24.50
2018-07-03T22:27:28.916Z,24.60
2018-07-03T22:32:32.347Z,24.60
2018-07-03T22:37:35.769Z,24.90
2018-07-03T22:42:39.148Z,24.90
2018-07-03T22:47:42.544Z,25.00
2018-07-03T22:52:45.918Z,25.20
2018-07-03T22:57:49.330Z,25.40
2018-07-03T23:02:52.695Z,25.30
2018-07-03T23:07:56.125Z,25.90
2018-07-03T23:12:59.498Z,25.50
2018-07-03T23:18:02.825Z,25.70
2018-07-03T23:23:06.267Z,25.60
2018-07-03T23:28:09.600Z,25.60
2018-07-03T23:33:13.000Z,25.70
2018-07-03T23:38:16.328Z,25.90
2018-07-03T23:43:19.712Z,26.10
2018-07-03T23:48:34.446Z,26.40
2018-07-03T23:53:49.071Z,26.50
2018-07-03T23:59:03.820Z,26.70
